This is the latest recevied weather packets stored in our database for station/object CE4ERM-13. If no packets are shown the sender has not sent any weather packets the latest 10 day(s).
| Time | Temp. | Humidity | Pressure | Rain* | Wind** | Luminosity | Snow |
|---|---|---|---|---|---|---|---|
| 1777697086 | 18.33° C | 46% | 1021.3 hPa | - | - | - | - |
| 1777696673 | 18.89° C | 48% | 1021.1 hPa | - | - | - | - |
| 1777696074 | 18.89° C | 48% | 1021 hPa | - | - | - | - |
| 1777695886 | 18.33° C | 46% | 1022.7 hPa | - | - | - | - |
| 1777695473 | 18.89° C | 47% | 1021.8 hPa | - | - | - | - |
| 1777695285 | 18.33° C | 46% | 1022.1 hPa | - | - | - | - |
| 1777694872 | 18.89° C | 48% | 1022.8 hPa | - | - | - | - |
| 1777694272 | 18.89° C | 47% | 1022.9 hPa | - | - | - | - |
| 1777694086 | 18.33° C | 45% | 1023.1 hPa | - | - | - | - |
| 1777693672 | 18.89° C | 47% | 1022.9 hPa | - | - | - | - |
| 1777693485 | 18.33° C | 46% | 1024.8 hPa | - | - | - | - |
| 1777693073 | 19.44° C | 47% | 1022.3 hPa | - | - | - | - |
| 1777692885 | 18.89° C | 46% | 1022.7 hPa | - | - | - | - |
| 1777692285 | 18.89° C | 46% | 1021.7 hPa | - | - | - | - |
| 1777691872 | 19.44° C | 47% | 1023.4 hPa | - | - | - | - |
| 1777691685 | 18.89° C | 46% | 1022.7 hPa | - | - | - | - |
| 1777691270 | 19.44° C | 46% | 1023.3 hPa | - | - | - | - |
| 1777690670 | 19.44° C | 47% | 1022.4 hPa | - | - | - | - |
| 1777690484 | 18.89° C | 48% | 1022.7 hPa | - | - | - | - |
| 1777690070 | 20° C | 46% | 1021.3 hPa | - | - | - | - |
| 1777689883 | 18.89° C | 49% | 1024.4 hPa | - | - | - | - |
| 1777689470 | 20° C | 47% | 1021.2 hPa | - | - | - | - |
| 1777689283 | 18.89° C | 49% | 1023.4 hPa | - | - | - | - |
| 1777688870 | 20° C | 47% | 1022.7 hPa | - | - | - | - |
| 1777688683 | 19.44° C | 48% | 1023.8 hPa | - | - | - | - |
* Rain since midnight (hover to see other rain measurements)
** Current wind speed in m/s (hover to see current wind gust speed)